GOGK

Kolda Airport

Kolda, Senegal
METAR GOGK 170300Z 08004KT 8000 NSC 23/09 Q1013
Observed Flight Rules
Dec-17 @ 03:00 UTC (3 hours ago) Marginal Visual Flight Rules
Wind Visibility Clouds
80° at 4 knots 7,998 meters
  • Clear skies
Temperatures Readings
Current 23°C / 73°F
Dewpoint 9°C / 48°F
Humidity 41%
Altimeter 29.91" Hg
Pressure 1013 hPa
Elevation 10
METAR GOGK 170300Z 08004KT 8000 NSC 23/09 Q1013
Observed Flight Rules
Dec-17 @ 03:00 UTC
(3 hours ago)
MVFR
Wind Visibility
80° at 4 knots 7,998 meters
Clouds
  • Clear skies
Temperature Dewpoint
23°C / 73°F 9°C / 48°F
Humidity Altimeter Pressure
41% 29.91" Hg 1013 hPa